createdAt,value
2019-05-29T00:00:29.933Z,99.90
2019-05-29T00:02:59.370Z,99.90
2019-05-29T00:05:28.838Z,99.90
2019-05-29T00:07:58.265Z,99.90
2019-05-29T00:10:27.722Z,99.90
2019-05-29T00:12:57.237Z,99.90
2019-05-29T00:15:26.705Z,99.90
2019-05-29T00:17:56.146Z,99.90
2019-05-29T00:20:25.674Z,99.90
2019-05-29T00:22:55.114Z,99.90
2019-05-29T00:25:24.574Z,99.90
2019-05-29T00:27:54.280Z,99.90
2019-05-29T00:30:24.706Z,99.90
2019-05-29T00:32:54.147Z,99.90
2019-05-29T00:35:23.593Z,99.90
2019-05-29T00:37:53.033Z,99.90
2019-05-29T00:40:22.569Z,99.90
2019-05-29T00:42:52.010Z,99.90
2019-05-29T00:45:21.536Z,99.90
2019-05-29T00:47:50.974Z,99.90
2019-05-29T00:50:20.704Z,99.90
2019-05-29T00:52:50.136Z,99.90
2019-05-29T00:55:19.596Z,99.90
2019-05-29T00:57:49.707Z,99.90
2019-05-29T01:00:19.525Z,99.90
2019-05-29T01:02:48.978Z,99.90
2019-05-29T01:05:18.430Z,99.90
2019-05-29T01:07:47.948Z,99.90
2019-05-29T01:10:18.904Z,99.90
2019-05-29T01:12:48.475Z,99.90
2019-05-29T01:15:19.532Z,99.90
2019-05-29T01:17:49.120Z,99.90
2019-05-29T01:20:19.915Z,99.90
2019-05-29T01:22:49.457Z,99.90
2019-05-29T01:25:18.914Z,99.90
2019-05-29T01:27:48.354Z,99.90
2019-05-29T01:30:19.230Z,99.90
2019-05-29T01:32:49.968Z,99.90
2019-05-29T01:35:20.040Z,99.90
2019-05-29T01:37:50.705Z,99.90
2019-05-29T01:40:25.173Z,99.90
2019-05-29T01:42:51.301Z,99.90
2019-05-29T01:45:21.504Z,99.90
2019-05-29T01:47:51.005Z,99.90
2019-05-29T01:50:21.609Z,99.90
2019-05-29T01:52:51.213Z,99.90
2019-05-29T01:55:21.678Z,99.90
2019-05-29T01:57:51.110Z,99.90
2019-05-29T02:00:21.999Z,99.90
2019-05-29T02:02:51.446Z,99.90
2019-05-29T02:05:21.922Z,99.90
2019-05-29T02:07:51.497Z,99.90
2019-05-29T02:10:22.146Z,99.90
2019-05-29T02:12:51.596Z,99.90
2019-05-29T02:15:30.135Z,99.90
2019-05-29T02:17:53.732Z,99.90
2019-05-29T02:20:23.433Z,99.90
2019-05-29T02:22:52.878Z,99.90
2019-05-29T02:25:22.877Z,99.90
2019-05-29T02:27:52.316Z,99.90
2019-05-29T02:30:23.644Z,99.90
2019-05-29T02:32:53.379Z,99.90
2019-05-29T02:35:24.638Z,99.90
2019-05-29T02:37:53.900Z,99.90
2019-05-29T02:40:25.615Z,99.90
2019-05-29T02:42:54.558Z,99.90
2019-05-29T02:45:37.358Z,99.90
2019-05-29T02:47:55.168Z,99.90
2019-05-29T02:50:26.334Z,99.90
2019-05-29T02:52:55.779Z,99.90
2019-05-29T02:55:26.762Z,99.90
2019-05-29T02:57:56.569Z,99.90
2019-05-29T03:00:56.233Z,99.90
2019-05-29T03:03:27.303Z,99.90
2019-05-29T03:05:58.298Z,99.90
2019-05-29T03:08:29.565Z,99.90
2019-05-29T03:10:58.804Z,99.90
2019-05-29T03:13:29.812Z,99.90
2019-05-29T03:16:10.740Z,99.90
2019-05-29T03:18:32.385Z,99.90
2019-05-29T03:21:01.631Z,99.90
2019-05-29T03:23:33.357Z,99.90
2019-05-29T03:26:03.116Z,99.90
2019-05-29T03:28:34.812Z,99.90
2019-05-29T03:31:03.629Z,99.90
2019-05-29T03:33:40.998Z,99.90
2019-05-29T03:36:04.326Z,99.90
2019-05-29T03:38:34.894Z,99.90
2019-05-29T03:41:04.763Z,99.90
2019-05-29T03:43:36.020Z,99.90
2019-05-29T03:46:05.279Z,99.90
2019-05-29T03:48:34.713Z,99.90
2019-05-29T03:51:04.285Z,99.90
2019-05-29T03:53:36.186Z,99.90
2019-05-29T03:56:05.279Z,99.90
2019-05-29T03:58:35.322Z,99.90
2019-05-29T04:01:05.481Z,99.90
2019-05-29T04:03:35.617Z,99.90
2019-05-29T04:06:06.310Z,99.90
2019-05-29T04:08:38.003Z,99.90
2019-05-29T04:11:07.372Z,99.90
2019-05-29T04:13:38.836Z,99.90
2019-05-29T04:16:10.126Z,99.90
2019-05-29T04:18:41.405Z,99.90
2019-05-29T04:21:11.764Z,99.90
2019-05-29T04:23:42.952Z,99.90
2019-05-29T04:26:15.109Z,99.90
2019-05-29T04:28:44.574Z,99.90
2019-05-29T04:31:14.058Z,99.90
2019-05-29T04:33:43.481Z,99.90
2019-05-29T04:36:12.924Z,99.90
2019-05-29T04:38:42.386Z,99.90
2019-05-29T04:41:11.818Z,99.90
2019-05-29T04:43:41.281Z,99.90
2019-05-29T04:46:10.733Z,99.90
2019-05-29T04:48:40.572Z,99.90
2019-05-29T04:51:10.138Z,99.90
2019-05-29T04:53:39.977Z,99.90
2019-05-29T04:56:09.549Z,99.90
2019-05-29T04:58:39.124Z,99.90
2019-05-29T05:01:08.660Z,99.90
2019-05-29T05:03:39.043Z,99.90
2019-05-29T05:06:08.858Z,99.90
2019-05-29T05:08:39.528Z,99.90
2019-05-29T05:11:10.401Z,99.90
2019-05-29T05:13:39.933Z,99.90
2019-05-29T05:16:09.369Z,99.90
2019-05-29T05:18:40.045Z,99.90
2019-05-29T05:21:09.771Z,99.90
2019-05-29T05:23:40.309Z,99.90
2019-05-29T05:26:10.141Z,99.90
2019-05-29T05:28:44.028Z,99.90
2019-05-29T05:31:10.666Z,99.90
2019-05-29T05:33:41.033Z,99.90
2019-05-29T05:36:10.562Z,99.90
2019-05-29T05:38:41.036Z,99.90
2019-05-29T05:41:10.707Z,99.90
2019-05-29T05:43:41.359Z,99.90
2019-05-29T05:46:11.089Z,99.90
2019-05-29T05:48:41.470Z,99.90
2019-05-29T05:51:11.238Z,99.90
2019-05-29T05:53:41.797Z,99.90
2019-05-29T05:56:11.508Z,99.90
2019-05-29T05:58:42.272Z,99.90
2019-05-29T06:01:11.998Z,99.90
2019-05-29T06:03:42.419Z,99.90
2019-05-29T06:06:12.344Z,99.90
2019-05-29T06:08:42.485Z,99.90
2019-05-29T06:11:12.277Z,99.90
2019-05-29T06:13:42.928Z,99.90
2019-05-29T06:16:12.459Z,99.90
2019-05-29T06:18:43.048Z,99.90
2019-05-29T06:21:12.713Z,99.90
2019-05-29T06:23:43.572Z,99.90
2019-05-29T06:26:13.448Z,99.90
2019-05-29T06:28:44.171Z,99.90
2019-05-29T06:31:13.618Z,99.90
2019-05-29T06:33:43.869Z,99.90
2019-05-29T06:36:13.627Z,99.90
2019-05-29T06:38:44.408Z,99.90
2019-05-29T06:41:14.991Z,99.90
2019-05-29T06:43:44.734Z,99.90
2019-05-29T06:46:14.362Z,99.90
2019-05-29T06:48:58.976Z,99.90
2019-05-29T06:51:15.861Z,99.90
2019-05-29T06:53:45.313Z,99.90
2019-05-29T06:56:15.687Z,99.90
2019-05-29T06:58:45.862Z,99.90
2019-05-29T07:01:15.372Z,99.90
2019-05-29T07:03:44.831Z,99.90
2019-05-29T07:06:14.278Z,99.90
2019-05-29T07:08:47.637Z,99.90
2019-05-29T07:11:14.929Z,99.90
2019-05-29T07:13:47.645Z,99.90
2019-05-29T07:16:16.597Z,99.90
2019-05-29T07:19:22.994Z,99.90
2019-05-29T07:21:17.208Z,99.90
2019-05-29T07:23:48.517Z,99.90
2019-05-29T07:26:17.812Z,99.90
2019-05-29T07:29:07.019Z,99.90
2019-05-29T07:31:19.497Z,99.90
2019-05-29T07:33:49.034Z,99.90
2019-05-29T07:36:18.473Z,99.90
2019-05-29T07:39:01.856Z,99.90
2019-05-29T07:41:19.010Z,99.90
2019-05-29T07:43:48.475Z,99.90
2019-05-29T07:46:17.925Z,99.90
2019-05-29T07:48:48.567Z,99.90
2019-05-29T07:51:18.518Z,99.90
2019-05-29T07:53:49.024Z,99.90
2019-05-29T07:56:22.934Z,99.90
2019-05-29T07:59:01.506Z,99.90
2019-05-29T08:01:21.694Z,99.90
2019-05-29T08:03:51.134Z,99.90
2019-05-29T08:06:20.601Z,99.90
2019-05-29T08:08:50.050Z,99.90
2019-05-29T08:11:19.505Z,99.90
2019-05-29T08:13:50.022Z,99.90
2019-05-29T08:16:20.556Z,99.90
2019-05-29T08:18:52.937Z,99.90
2019-05-29T08:21:21.149Z,99.90
2019-05-29T08:23:50.928Z,99.90
2019-05-29T08:26:20.362Z,99.90
2019-05-29T08:28:50.962Z,99.90
2019-05-29T08:31:21.846Z,99.90
2019-05-29T08:33:51.504Z,99.90
2019-05-29T08:36:21.927Z,99.90
2019-05-29T08:38:51.910Z,99.90
2019-05-29T08:41:21.432Z,99.90
2019-05-29T08:43:50.948Z,99.90
2019-05-29T08:46:20.451Z,99.90
2019-05-29T08:48:50.033Z,99.90
2019-05-29T08:51:19.665Z,99.90
2019-05-29T08:53:51.854Z,99.90
2019-05-29T08:56:20.177Z,99.90
2019-05-29T08:58:50.689Z,99.90
2019-05-29T09:01:21.363Z,99.90
2019-05-29T09:03:51.331Z,99.90
2019-05-29T09:06:21.041Z,99.90
2019-05-29T09:08:54.024Z,99.90
2019-05-29T09:11:21.929Z,99.90
2019-05-29T09:13:51.375Z,99.90
2019-05-29T09:16:21.980Z,99.90
2019-05-29T09:18:51.474Z,99.90
2019-05-29T09:21:20.934Z,99.90
2019-05-29T09:23:50.376Z,99.90
2019-05-29T09:26:23.020Z,99.90
2019-05-29T09:28:51.921Z,99.90
2019-05-29T09:31:22.168Z,99.90
2019-05-29T09:33:52.785Z,99.90
2019-05-29T09:36:22.746Z,99.90
2019-05-29T09:38:52.341Z,99.90
2019-05-29T09:41:22.311Z,96.30
2019-05-29T09:43:59.315Z,96.30
2019-05-29T09:46:24.070Z,99.90
2019-05-29T09:48:53.517Z,94.00
2019-05-29T09:51:22.994Z,99.90
2019-05-29T09:53:53.920Z,99.90
2019-05-29T09:56:23.594Z,93.50
2019-05-29T09:58:55.230Z,99.50
2019-05-29T10:01:25.315Z,94.40
2019-05-29T10:03:57.062Z,92.60
2019-05-29T10:06:26.437Z,93.10
2019-05-29T10:08:56.296Z,99.90
2019-05-29T10:11:26.338Z,99.90
2019-05-29T10:13:56.863Z,99.90
2019-05-29T10:16:26.969Z,99.90
2019-05-29T10:18:58.475Z,99.90
2019-05-29T10:21:39.433Z,97.60
2019-05-29T10:23:59.582Z,80.30
2019-05-29T10:26:29.146Z,76.40
2019-05-29T10:29:08.032Z,71.90
2019-05-29T10:31:29.672Z,77.30
2019-05-29T10:33:59.109Z,80.00
2019-05-29T10:36:28.599Z,78.40
2019-05-29T10:38:58.030Z,79.30
2019-05-29T10:41:27.496Z,89.80
2019-05-29T10:43:56.934Z,97.50
2019-05-29T10:46:27.471Z,99.90
2019-05-29T10:48:56.913Z,99.90
2019-05-29T10:51:26.382Z,99.90
2019-05-29T10:53:58.371Z,99.90
2019-05-29T10:56:26.923Z,99.90
2019-05-29T10:58:59.808Z,99.90
2019-05-29T11:01:27.446Z,99.90
2019-05-29T11:03:56.889Z,99.90
2019-05-29T11:06:26.425Z,93.90
2019-05-29T11:08:56.296Z,95.90
2019-05-29T11:11:26.918Z,95.60
2019-05-29T11:13:57.169Z,95.60
2019-05-29T11:16:26.737Z,87.10
2019-05-29T11:18:57.652Z,91.50
2019-05-29T11:21:27.215Z,97.20
2019-05-29T11:23:58.028Z,99.90
2019-05-29T11:26:27.612Z,93.50
2019-05-29T11:28:57.057Z,80.30
2019-05-29T11:31:26.519Z,78.00
2019-05-29T11:33:57.185Z,84.60
2019-05-29T11:36:26.732Z,67.60
2019-05-29T11:38:56.869Z,73.00
2019-05-29T11:41:27.310Z,63.90
2019-05-29T11:43:56.964Z,61.20
2019-05-29T11:46:26.415Z,58.30
2019-05-29T11:48:57.210Z,51.90
2019-05-29T11:51:26.854Z,50.30
2019-05-29T11:53:57.417Z,58.00
2019-05-29T11:56:26.946Z,52.10
2019-05-29T11:58:56.928Z,53.90
2019-05-29T12:01:26.668Z,60.60
2019-05-29T12:04:21.895Z,61.90
2019-05-29T12:06:27.193Z,59.50
2019-05-29T12:08:57.973Z,66.20
2019-05-29T12:11:27.502Z,76.30
2019-05-29T12:13:58.043Z,76.20
2019-05-29T12:16:27.629Z,57.80
2019-05-29T12:18:57.798Z,71.20
2019-05-29T12:21:27.331Z,66.90
2019-05-29T12:23:58.255Z,51.60
2019-05-29T12:26:28.646Z,57.70
2019-05-29T12:29:04.522Z,51.40
2019-05-29T12:31:29.196Z,58.70
2019-05-29T12:34:06.662Z,75.60
2019-05-29T12:36:30.546Z,67.80
2019-05-29T12:39:02.004Z,65.50
2019-05-29T12:41:32.441Z,65.30
2019-05-29T12:44:01.914Z,62.60
2019-05-29T12:46:31.363Z,57.30
2019-05-29T12:49:01.705Z,56.80
2019-05-29T12:51:31.305Z,55.10
2019-05-29T12:54:02.279Z,52.40
2019-05-29T12:56:31.969Z,50.20
2019-05-29T12:59:02.694Z,52.10
2019-05-29T13:01:32.291Z,54.80
2019-05-29T13:04:02.395Z,60.10
2019-05-29T13:06:31.994Z,50.20
2019-05-29T13:09:02.552Z,50.50
2019-05-29T13:11:32.581Z,51.10
2019-05-29T13:14:02.691Z,49.70
2019-05-29T13:16:32.294Z,53.10
2019-05-29T13:19:03.294Z,55.90
2019-05-29T13:21:33.017Z,55.50
2019-05-29T13:24:06.347Z,43.50
2019-05-29T13:26:34.674Z,47.40
2019-05-29T13:29:04.358Z,53.30
2019-05-29T13:31:34.161Z,50.60
2019-05-29T13:34:04.429Z,46.50
2019-05-29T13:36:33.953Z,50.00
2019-05-29T13:39:04.937Z,50.20
2019-05-29T13:41:34.872Z,46.00
2019-05-29T13:44:06.809Z,42.40
2019-05-29T13:46:36.427Z,45.40
2019-05-29T13:49:07.216Z,53.10
2019-05-29T13:51:36.853Z,47.00
2019-05-29T13:54:13.046Z,48.50
2019-05-29T13:56:37.397Z,48.30
2019-05-29T13:59:08.392Z,42.80
2019-05-29T14:01:37.990Z,43.50
2019-05-29T14:04:08.660Z,43.70
2019-05-29T14:06:38.310Z,46.50
2019-05-29T14:09:09.881Z,50.40
2019-05-29T14:11:39.869Z,43.20
2019-05-29T14:14:11.399Z,44.40
2019-05-29T14:16:40.419Z,46.40
2019-05-29T14:19:09.885Z,44.70
2019-05-29T14:21:39.326Z,44.40
2019-05-29T14:24:26.260Z,45.90
2019-05-29T14:26:39.917Z,47.70
2019-05-29T14:29:10.056Z,53.40
2019-05-29T14:31:39.683Z,53.10
2019-05-29T14:34:10.125Z,52.60
2019-05-29T14:36:42.431Z,54.20
2019-05-29T14:39:12.077Z,57.90
2019-05-29T14:41:41.954Z,54.40
2019-05-29T14:44:12.048Z,51.40
2019-05-29T14:46:41.582Z,45.30
2019-05-29T14:49:20.733Z,41.80
2019-05-29T14:51:50.179Z,44.10
2019-05-29T14:54:19.642Z,42.00
2019-05-29T14:56:49.110Z,44.10
2019-05-29T14:59:18.710Z,42.60
2019-05-29T15:01:51.195Z,46.20
2019-05-29T15:04:19.334Z,50.80
2019-05-29T15:06:48.777Z,51.00
2019-05-29T15:09:18.238Z,49.60
2019-05-29T15:11:47.750Z,45.10
2019-05-29T15:14:17.213Z,41.40
2019-05-29T15:16:46.663Z,45.70
2019-05-29T15:19:17.097Z,40.30
2019-05-29T15:21:46.541Z,40.80
2019-05-29T15:24:16.014Z,40.00
2019-05-29T15:26:45.461Z,41.90
2019-05-29T15:29:16.764Z,44.00
2019-05-29T15:31:45.992Z,41.20
2019-05-29T15:34:16.516Z,45.20
2019-05-29T15:36:46.101Z,41.40
2019-05-29T15:39:16.762Z,42.70
2019-05-29T15:41:46.418Z,44.20
2019-05-29T15:44:17.101Z,42.50
2019-05-29T15:46:46.816Z,43.90
2019-05-29T15:49:17.298Z,41.60
2019-05-29T15:51:47.442Z,41.20
2019-05-29T15:54:17.638Z,41.30
2019-05-29T15:56:47.373Z,46.70
2019-05-29T15:59:18.927Z,46.40
2019-05-29T16:01:47.910Z,45.90
2019-05-29T16:04:17.999Z,49.60
2019-05-29T16:06:47.645Z,43.90
2019-05-29T16:09:18.689Z,44.40
2019-05-29T16:11:48.322Z,42.90
2019-05-29T16:14:19.020Z,44.50
2019-05-29T16:16:48.731Z,41.80
2019-05-29T16:19:19.141Z,40.90
2019-05-29T16:21:48.682Z,43.50
2019-05-29T16:24:19.028Z,40.50
2019-05-29T16:26:48.589Z,39.50
2019-05-29T16:29:19.649Z,38.30
2019-05-29T16:31:49.301Z,41.50
2019-05-29T16:34:19.994Z,41.70
2019-05-29T16:36:49.842Z,41.40
2019-05-29T16:39:20.926Z,40.30
2019-05-29T16:41:50.365Z,40.60
2019-05-29T16:44:24.248Z,41.90
2019-05-29T16:46:50.919Z,43.60
2019-05-29T16:49:21.224Z,41.90
2019-05-29T16:51:50.825Z,43.10
2019-05-29T16:54:21.060Z,37.80
2019-05-29T16:56:50.663Z,39.10
2019-05-29T16:59:21.286Z,37.50
2019-05-29T17:01:50.867Z,40.20
2019-05-29T17:04:20.312Z,39.40
2019-05-29T17:06:49.779Z,40.00
2019-05-29T17:09:20.258Z,37.50
2019-05-29T17:11:49.784Z,36.60
2019-05-29T17:14:20.817Z,37.70
2019-05-29T17:16:51.618Z,40.10
2019-05-29T17:19:21.065Z,40.70
2019-05-29T17:21:50.531Z,42.20
2019-05-29T17:24:20.938Z,40.80
2019-05-29T17:26:50.421Z,38.60
2019-05-29T17:29:20.807Z,40.20
2019-05-29T17:31:51.405Z,39.60
2019-05-29T17:34:21.087Z,37.80
2019-05-29T17:36:51.560Z,40.70
2019-05-29T17:39:21.461Z,40.80
2019-05-29T17:41:51.045Z,42.50
2019-05-29T17:44:21.409Z,39.40
2019-05-29T17:46:50.881Z,39.90
2019-05-29T17:49:24.901Z,41.30
2019-05-29T17:51:51.420Z,42.10
2019-05-29T17:54:22.031Z,42.50
2019-05-29T17:56:52.609Z,44.70
2019-05-29T17:59:22.649Z,44.10
2019-05-29T18:01:52.126Z,44.00
2019-05-29T18:04:22.612Z,46.40
2019-05-29T18:06:52.122Z,45.00
2019-05-29T18:09:24.718Z,46.70
2019-05-29T18:11:52.805Z,47.10
2019-05-29T18:14:23.341Z,50.40
2019-05-29T18:16:52.849Z,50.00
2019-05-29T18:19:23.683Z,50.50
2019-05-29T18:21:53.265Z,50.50
2019-05-29T18:24:23.773Z,51.70
2019-05-29T18:26:53.376Z,52.00
2019-05-29T18:29:23.155Z,51.90
2019-05-29T18:31:53.789Z,52.50
2019-05-29T18:34:23.233Z,53.20
2019-05-29T18:36:52.698Z,54.30
2019-05-29T18:39:22.215Z,55.00
2019-05-29T18:41:51.707Z,57.60
2019-05-29T18:44:21.156Z,56.70
2019-05-29T18:46:50.618Z,58.70
2019-05-29T18:49:20.358Z,58.60
2019-05-29T18:51:49.931Z,60.50
2019-05-29T18:54:19.369Z,67.20
2019-05-29T18:57:13.095Z,71.10
2019-05-29T18:59:21.416Z,74.40
2019-05-29T19:01:50.993Z,79.50
2019-05-29T19:04:21.515Z,83.60
2019-05-29T19:06:50.997Z,83.70
2019-05-29T19:09:21.617Z,92.00
2019-05-29T19:11:51.214Z,94.00
2019-05-29T19:14:21.676Z,97.10
2019-05-29T19:16:51.229Z,99.90
2019-05-29T19:19:21.928Z,99.90
2019-05-29T19:21:51.557Z,99.90
2019-05-29T19:24:22.412Z,99.90
2019-05-29T19:26:51.969Z,99.90
2019-05-29T19:29:22.843Z,99.90
2019-05-29T19:31:52.479Z,99.90
2019-05-29T19:34:23.156Z,99.90
2019-05-29T19:36:52.781Z,99.90
2019-05-29T19:39:28.021Z,99.90
2019-05-29T19:41:57.584Z,99.90
2019-05-29T19:44:28.228Z,99.90
2019-05-29T19:46:57.736Z,99.90
2019-05-29T19:49:27.375Z,99.90
2019-05-29T19:51:56.846Z,99.90
2019-05-29T19:54:27.329Z,99.90
2019-05-29T19:56:56.954Z,99.90
2019-05-29T19:59:26.477Z,99.90
2019-05-29T20:01:55.935Z,99.90
2019-05-29T20:04:26.600Z,99.90
2019-05-29T20:06:56.101Z,99.90
2019-05-29T20:09:25.586Z,99.90
2019-05-29T20:11:55.005Z,99.90
2019-05-29T20:14:24.482Z,99.90
2019-05-29T20:16:53.914Z,99.90
2019-05-29T20:19:23.373Z,99.90
2019-05-29T20:21:52.813Z,99.90
2019-05-29T20:24:22.283Z,99.90
2019-05-29T20:26:51.723Z,99.90
2019-05-29T20:29:21.189Z,99.90
2019-05-29T20:31:50.669Z,99.90
2019-05-29T20:34:20.097Z,99.90
2019-05-29T20:36:49.538Z,99.90
2019-05-29T20:39:19.013Z,99.90
2019-05-29T20:41:48.473Z,99.90
2019-05-29T20:44:17.933Z,99.90
2019-05-29T20:46:47.378Z,99.90
2019-05-29T20:49:16.918Z,99.90
2019-05-29T20:51:46.361Z,99.90
2019-05-29T20:54:15.830Z,99.90
2019-05-29T20:56:45.436Z,99.90
2019-05-29T20:59:14.901Z,99.90
2019-05-29T21:01:47.427Z,99.90
2019-05-29T21:04:15.443Z,99.90
2019-05-29T21:06:44.899Z,99.90
2019-05-29T21:09:14.478Z,99.90
2019-05-29T21:11:44.350Z,99.90
2019-05-29T21:14:14.061Z,99.90
2019-05-29T21:16:44.019Z,99.90
2019-05-29T21:19:13.462Z,99.90
2019-05-29T21:21:42.908Z,99.90
2019-05-29T21:24:12.373Z,99.90
2019-05-29T21:26:43.129Z,99.90
2019-05-29T21:29:12.781Z,99.90
2019-05-29T21:31:42.227Z,99.90
2019-05-29T21:34:11.685Z,99.90
2019-05-29T21:36:42.170Z,99.90
2019-05-29T21:39:11.703Z,99.90
2019-05-29T21:41:41.157Z,99.90
2019-05-29T21:44:10.904Z,99.90
2019-05-29T21:46:40.921Z,99.90
2019-05-29T21:49:10.548Z,99.90
2019-05-29T21:51:39.990Z,99.90
2019-05-29T21:54:09.451Z,99.90
2019-05-29T21:56:39.487Z,99.90
2019-05-29T21:59:09.052Z,99.90
2019-05-29T22:01:39.804Z,99.90
2019-05-29T22:04:10.493Z,99.90
2019-05-29T22:06:40.494Z,99.90
2019-05-29T22:09:15.772Z,99.90
2019-05-29T22:11:45.217Z,99.90
2019-05-29T22:14:14.682Z,99.90
2019-05-29T22:16:44.190Z,99.90
2019-05-29T22:19:13.652Z,99.90
2019-05-29T22:21:43.095Z,99.90
2019-05-29T22:24:12.557Z,99.90
2019-05-29T22:26:42.005Z,99.90
2019-05-29T22:29:17.810Z,99.90
2019-05-29T22:31:42.529Z,99.90
2019-05-29T22:34:12.061Z,99.90
2019-05-29T22:36:41.509Z,99.90
2019-05-29T22:39:11.040Z,99.90
2019-05-29T22:41:40.491Z,99.90
2019-05-29T22:44:09.949Z,99.90
2019-05-29T22:46:39.484Z,99.90
2019-05-29T22:49:08.925Z,99.90
2019-05-29T22:51:38.388Z,99.90
2019-05-29T22:54:07.829Z,99.90
2019-05-29T22:56:37.312Z,99.90
2019-05-29T22:59:06.742Z,99.90
2019-05-29T23:01:36.200Z,99.90
2019-05-29T23:04:05.650Z,99.90
2019-05-29T23:06:35.110Z,99.90
2019-05-29T23:09:06.757Z,99.90
2019-05-29T23:11:36.217Z,99.90
2019-05-29T23:14:05.665Z,99.90
2019-05-29T23:16:36.198Z,99.90
2019-05-29T23:19:05.638Z,99.90
2019-05-29T23:21:35.105Z,99.90
2019-05-29T23:24:04.711Z,99.90
2019-05-29T23:26:34.185Z,99.90
2019-05-29T23:29:03.913Z,99.90
2019-05-29T23:31:33.470Z,99.90
2019-05-29T23:34:03.287Z,99.90
2019-05-29T23:36:32.870Z,99.90
2019-05-29T23:39:03.396Z,99.90
2019-05-29T23:41:32.890Z,99.90
2019-05-29T23:44:03.698Z,99.90
2019-05-29T23:46:33.264Z,99.90
2019-05-29T23:49:03.861Z,99.90
2019-05-29T23:51:33.469Z,99.90
2019-05-29T23:54:03.949Z,99.90
2019-05-29T23:56:34.540Z,99.90
2019-05-29T23:59:04.171Z,99.90
